.
WxDataArchive / Data Records for 2010-05-03
2010-05-02 May 2010 2010-05-04

Data Records for Monday, 03 May 2010

Time	Temp	Chill	HIndex	Humid	Dewpt	 Wind 	HiWind	WindDir	Rain 	Barom 
-----	----	-----	------	-----	-----	------	------	-------	-----	----- 
00:00	60.7	60.7	60.7	93	58.7	0	0	---	0.00	29.662 
00:05	60.7	60.7	60.7	93	58.7	0	0	---	0.00	29.662 
00:10	60.7	60.7	60.7	92	58.4	0	0	---	0.00	29.662 
00:15	60.7	60.7	60.7	92	58.4	0	0	---	0.00	29.661 
00:20	60.7	60.7	60.7	92	58.4	0	0	---	0.00	29.661 
00:25	60.7	60.7	60.7	92	58.4	0	0	---	0.00	29.661 
00:30	60.5	60.5	60.5	92	58.2	0	0	---	0.00	29.667 
00:35	60.2	60.2	60.2	92	57.9	0	0	---	0.00	29.667 
00:40	60.1	60.1	60.1	92	57.8	0	0	---	0.00	29.667 
00:45	59.8	59.8	59.8	92	57.5	0	0	---	0.00	29.673 
00:50	59.6	59.6	59.6	92	57.3	0	0	---	0.00	29.673 
00:55	59.3	59.3	59.3	92	57.0	0	0	---	0.00	29.673 
01:00	59.2	59.2	59.2	92	56.9	0	0	---	0.00	29.677 
01:05	58.9	58.9	58.9	92	56.6	0	0	---	0.00	29.677 
01:10	58.9	58.9	58.9	93	56.9	0	0	---	0.00	29.677 
01:15	58.7	58.7	58.7	93	56.7	0	0	---	0.00	29.679 
01:20	58.7	58.7	58.7	93	56.7	0	0	---	0.00	29.679 
01:25	58.6	58.6	58.6	93	56.6	0	0	---	0.00	29.679 
01:30	58.6	58.6	58.6	93	56.6	0	1	315	0.00	29.677 
01:35	58.6	58.6	58.6	93	56.6	0	0	---	0.00	29.677 
01:40	58.4	58.4	58.4	93	56.4	0	0	---	0.00	29.677 
01:45	58.4	58.4	58.4	93	56.4	0	0	---	0.00	29.679 
01:50	58.3	58.3	58.3	93	56.3	0	0	---	0.00	29.679 
01:55	58.1	58.1	58.1	93	56.1	0	0	---	0.00	29.679 
02:00	58.1	58.1	58.1	93	56.1	0	0	---	0.00	29.680 
02:05	58.0	58.0	58.0	93	56.0	0	0	---	0.00	29.680 
02:10	58.0	58.0	58.0	93	56.0	0	0	---	0.00	29.680 
02:15	57.8	57.8	57.8	94	56.1	0	0	---	0.00	29.693 
02:20	58.0	58.0	58.0	94	56.3	0	0	---	0.00	29.693 
02:25	58.0	58.0	58.0	94	56.3	0	0	---	0.00	29.693 
02:30	58.1	58.1	58.1	94	56.4	0	0	---	0.00	29.695 
02:35	58.1	58.1	58.1	94	56.4	0	0	---	0.00	29.695 
02:40	58.1	58.1	58.1	94	56.4	0	1	315	0.00	29.695 
02:45	58.1	58.1	58.1	93	56.1	0	1	315	0.00	29.697 
02:50	58.1	58.1	58.1	93	56.1	0	0	---	0.00	29.697 
02:55	58.1	58.1	58.1	93	56.1	0	0	---	0.00	29.697 
03:00	58.0	58.0	58.0	93	56.0	0	0	---	0.00	29.694 
03:05	57.8	57.8	57.8	93	55.8	0	0	---	0.00	29.694 
03:10	57.6	57.6	57.6	93	55.6	0	0	---	0.00	29.694 
03:15	57.6	57.6	57.6	93	55.6	0	1	315	0.00	29.695 
03:20	57.6	57.6	57.6	93	55.6	0	0	---	0.00	29.695 
03:25	57.5	57.5	57.5	93	55.5	0	0	---	0.00	29.695 
03:30	57.5	57.5	57.5	93	55.5	0	0	---	0.00	29.691 
03:35	57.5	57.5	57.5	93	55.5	0	0	---	0.00	29.691 
03:40	57.5	57.5	57.5	93	55.5	0	1	315	0.00	29.691 
03:45	57.5	57.5	57.5	93	55.5	0	1	315	0.00	29.695 
03:50	57.6	57.6	57.6	93	55.6	0	1	315	0.00	29.695 
03:55	57.8	57.8	57.8	93	55.8	0	2	315	0.00	29.695 
04:00	57.8	57.8	57.8	93	55.8	0	2	315	0.00	29.699 
04:05	57.8	57.8	57.8	93	55.8	0	1	315	0.00	29.699 
04:10	57.8	57.8	57.8	93	55.8	0	1	315	0.00	29.699 
04:15	57.8	57.8	57.8	93	55.8	0	1	315	0.00	29.710 
04:20	57.6	57.6	57.6	93	55.6	0	1	315	0.00	29.710 
04:25	57.6	57.6	57.6	93	55.6	0	2	315	0.00	29.710 
04:30	57.6	57.6	57.6	93	55.6	0	1	315	0.00	29.712 
04:35	57.5	57.5	57.5	93	55.5	0	1	315	0.00	29.712 
04:40	57.5	57.5	57.5	93	55.5	0	1	315	0.00	29.712 
04:45	57.3	57.3	57.3	93	55.3	0	1	315	0.00	29.715 
04:50	57.3	57.3	57.3	93	55.3	0	2	315	0.00	29.715 
04:55	57.2	57.2	57.2	93	55.2	0	1	315	0.00	29.715 
05:00	57.0	57.0	57.0	93	55.0	0	1	315	0.00	29.712 
05:05	57.0	57.0	57.0	93	55.0	0	1	315	0.00	29.712 
05:10	56.9	56.9	56.9	93	54.9	0	1	315	0.00	29.712 
05:15	56.7	56.7	56.7	93	54.7	0	1	315	0.00	29.718 
05:20	56.6	56.6	56.6	93	54.6	0	1	315	0.00	29.718 
05:25	56.5	56.5	56.5	93	54.5	0	1	315	0.00	29.718 
05:30	56.5	56.5	56.5	93	54.5	0	0	---	0.00	29.724 
05:35	56.3	56.3	56.3	93	54.3	0	1	315	0.00	29.724 
05:40	56.3	56.3	56.3	93	54.3	0	2	315	0.00	29.724 
05:45	56.2	56.2	56.2	93	54.2	0	1	315	0.00	29.726 
05:50	56.2	56.2	56.2	93	54.2	0	1	315	0.00	29.726 
05:55	56.2	56.2	56.2	93	54.2	0	0	---	0.00	29.726 
06:00	56.0	56.0	56.0	93	54.0	0	1	315	0.00	29.727 
06:05	55.9	55.9	55.9	93	53.9	0	1	315	0.00	29.727 
06:10	55.9	55.9	55.9	93	53.9	0	1	315	0.00	29.727 
06:15	55.9	55.9	55.9	93	53.9	0	0	---	0.00	29.734 
06:20	55.7	55.7	55.7	93	53.7	0	0	---	0.00	29.734 
06:25	55.7	55.7	55.7	93	53.7	0	0	---	0.00	29.734 
06:30	55.6	55.6	55.6	93	53.6	0	1	315	0.00	29.744 
06:35	55.4	55.4	55.4	93	53.4	0	0	---	0.00	29.744 
06:40	55.3	55.3	55.3	93	53.3	0	1	315	0.00	29.744 
06:45	55.3	55.3	55.3	93	53.3	0	1	315	0.00	29.748 
06:50	55.3	55.3	55.3	93	53.3	0	0	---	0.00	29.748 
06:55	55.1	55.1	55.1	93	53.1	0	1	315	0.00	29.748 
07:00	55.1	55.1	55.1	94	53.4	0	1	315	0.00	29.761 
07:05	55.1	55.1	55.1	94	53.4	0	1	315	0.00	29.761 
07:10	55.1	55.1	55.1	94	53.4	0	0	---	0.00	29.761 
07:15	55.1	55.1	55.1	94	53.4	0	1	315	0.00	29.771 
07:20	55.3	55.3	55.3	94	53.6	0	1	315	0.00	29.771 
07:25	55.4	55.4	55.4	94	53.7	0	1	315	0.00	29.771 
07:30	55.6	55.6	55.6	94	53.9	0	1	315	0.00	29.776 
07:35	55.9	55.9	55.9	94	54.2	0	2	248	0.00	29.776 
07:40	56.2	56.2	56.2	94	54.5	1	3	248	0.00	29.776 
07:45	56.5	56.5	56.5	93	54.5	1	2	248	0.00	29.778 
07:50	56.7	56.7	56.7	93	54.7	0	2	248	0.00	29.778 
07:55	57.0	57.0	57.0	92	54.7	1	3	248	0.00	29.778 
08:00	57.3	57.3	57.3	91	54.7	1	3	248	0.00	29.788 
08:05	57.6	57.6	57.6	90	54.7	1	3	248	0.00	29.788 
08:10	58.0	58.0	58.0	88	54.5	1	2	248	0.00	29.788 
08:15	58.3	58.3	58.3	87	54.4	1	2	248	0.00	29.793 
08:20	58.6	58.6	58.6	86	54.4	1	4	248	0.00	29.793 
08:25	58.9	58.9	58.9	84	54.1	1	4	248	0.00	29.793 
08:30	59.3	59.3	59.3	83	54.1	1	3	270	0.00	29.794 
08:35	59.6	59.6	59.6	82	54.1	1	3	270	0.00	29.794 
08:40	60.1	60.1	60.1	81	54.2	1	4	248	0.00	29.794 
08:45	60.4	60.4	60.4	79	53.9	1	3	248	0.00	29.802 
08:50	60.9	60.9	60.9	78	54.0	1	5	248	0.00	29.802 
08:55	61.0	61.0	61.0	76	53.4	2	5	270	0.00	29.802 
09:00	61.2	61.2	61.2	74	52.8	2	4	270	0.00	29.805 
09:05	61.3	61.3	61.3	72	52.2	2	4	248	0.00	29.805 
09:10	61.6	61.6	61.6	72	52.5	2	3	248	0.00	29.805 
09:15	62.0	62.0	62.0	71	52.5	2	4	248	0.00	29.812 
09:20	62.3	62.3	62.3	69	52.0	2	5	248	0.00	29.812 
09:25	62.3	62.3	62.3	68	51.6	2	4	248	0.00	29.812 
09:30	62.7	62.7	62.7	69	52.4	2	4	248	0.00	29.815 
09:35	63.1	63.1	63.1	68	52.4	2	4	248	0.00	29.815 
09:40	63.4	63.4	63.4	67	52.2	1	3	248	0.00	29.815 
09:45	63.4	63.4	63.4	63	50.6	2	5	270	0.00	29.818 
09:50	63.5	63.5	63.5	64	51.1	2	5	270	0.00	29.818 
09:55	63.9	63.9	63.9	65	51.9	2	5	270	0.00	29.818 
10:00	64.2	64.2	64.2	65	52.2	2	4	315	0.00	29.823 
10:05	64.5	64.5	64.5	65	52.5	2	4	248	0.00	29.823 
10:10	64.7	64.7	64.7	61	50.9	2	5	270	0.00	29.823 
10:15	64.8	64.8	64.8	62	51.5	2	4	270	0.00	29.823 
10:20	65.2	65.2	65.2	61	51.4	2	5	248	0.00	29.823 
10:25	65.2	65.2	65.2	61	51.4	2	7	248	0.00	29.823 
10:30	65.5	65.5	65.5	61	51.7	2	5	270	0.00	29.832 
10:35	65.5	65.5	65.5	59	50.8	2	4	248	0.00	29.832 
10:40	65.6	65.6	65.6	60	51.3	2	4	292	0.00	29.832 
10:45	65.8	65.8	65.8	60	51.5	2	4	270	0.00	29.837 
10:50	66.0	66.0	66.0	58	50.8	2	5	248	0.00	29.837 
10:55	66.3	66.3	66.3	61	52.4	1	3	292	0.00	29.837 
11:00	66.6	66.6	66.6	57	50.9	2	5	248	0.00	29.825 
11:05	66.6	66.6	66.6	56	50.4	2	4	270	0.00	29.825 
11:10	67.1	67.1	67.1	57	51.3	2	4	248	0.00	29.825 
11:15	67.4	67.4	67.4	56	51.1	2	4	248	0.00	29.829 
11:20	67.6	67.6	67.6	56	51.3	2	3	270	0.00	29.829 
11:25	67.8	67.8	67.8	58	52.5	2	5	270	0.00	29.829 
11:30	67.9	67.9	67.9	56	51.6	2	5	270	0.00	29.830 
11:35	67.8	67.8	67.8	56	51.5	2	5	248	0.00	29.830 
11:40	67.8	67.8	67.8	55	51.0	2	5	248	0.00	29.830 
11:45	67.8	67.8	67.8	54	50.5	2	5	338	0.00	29.834 
11:50	68.1	68.1	68.1	55	51.3	2	6	248	0.00	29.834 
11:55	68.3	68.3	68.3	53	50.5	2	4	315	0.00	29.834 
12:00	68.6	68.6	68.6	58	53.2	1	4	270	0.00	29.832 
12:05	68.9	68.9	68.9	52	50.5	1	4	270	0.00	29.832 
12:10	69.3	69.3	69.3	52	50.9	2	4	270	0.00	29.832 
12:15	69.3	69.3	69.3	53	51.4	2	5	270	0.00	29.839 
12:20	69.6	69.6	69.6	53	51.7	2	4	270	0.00	29.839 
12:25	69.9	69.9	69.9	53	52.0	1	4	270	0.00	29.839 
12:30	70.6	70.6	70.6	56	54.1	1	5	292	0.00	29.839 
12:35	70.4	70.4	70.4	51	51.4	2	4	270	0.00	29.839 
12:40	70.4	70.4	70.4	49	50.3	2	4	292	0.00	29.839 
12:45	70.3	70.3	70.3	49	50.2	2	4	270	0.00	29.838 
12:50	70.6	70.6	70.6	51	51.6	2	5	270	0.00	29.838 
12:55	70.9	70.9	70.9	52	52.4	1	4	248	0.00	29.838 
13:00	70.9	70.9	70.9	50	51.3	1	4	338	0.00	29.839 
13:05	71.5	71.5	71.5	48	50.8	1	3	248	0.00	29.839 
13:10	71.8	71.8	71.8	50	52.1	2	5	248	0.00	29.839 
13:15	71.8	71.8	71.8	47	50.5	2	6	248	0.00	29.838 
13:20	72.0	72.0	72.0	46	50.1	2	4	270	0.00	29.838 
13:25	72.1	72.1	72.1	47	50.7	2	7	338	0.00	29.838 
13:30	72.0	72.0	72.0	46	50.1	3	7	270	0.00	29.838 
13:35	72.0	72.0	72.0	47	50.7	2	5	248	0.00	29.838 
13:40	72.1	72.1	72.1	46	50.2	3	6	248	0.00	29.838 
13:45	72.3	72.3	72.3	45	49.8	2	5	270	0.00	29.834 
13:50	72.5	72.5	72.5	44	49.3	2	5	248	0.00	29.834 
13:55	72.3	72.3	72.3	44	49.2	2	6	270	0.00	29.834 
14:00	72.7	72.7	72.7	49	52.4	1	6	270	0.00	29.827 
14:05	72.8	72.8	72.8	44	49.6	2	5	270	0.00	29.827 
14:10	73.0	73.0	73.0	44	49.8	2	6	270	0.00	29.827 
14:15	73.2	73.2	73.2	43	49.3	2	5	270	0.00	29.829 
14:20	73.2	73.2	73.2	42	48.7	3	6	248	0.00	29.829 
14:25	73.3	73.3	73.3	42	48.8	2	5	248	0.00	29.829 
14:30	73.5	73.5	73.5	41	48.3	2	5	248	0.00	29.821 
14:35	73.5	73.5	73.5	45	50.8	2	12	248	0.00	29.821 
14:40	73.5	73.5	73.5	42	49.0	2	7	292	0.00	29.821 
14:45	73.5	73.5	73.5	39	47.0	3	6	248	0.00	29.821 
14:50	73.7	73.7	73.7	41	48.5	2	5	248	0.00	29.821 
14:55	74.0	74.0	74.0	39	47.5	2	6	248	0.00	29.821 
15:00	73.7	73.7	73.7	41	48.5	2	8	248	0.00	29.820 
15:05	73.5	73.5	73.5	45	50.8	1	5	248	0.00	29.820 
15:10	73.5	73.5	73.5	42	49.0	2	7	248	0.00	29.820 
15:15	73.0	73.0	73.0	42	48.5	2	6	248	0.00	29.824 
15:20	73.2	73.2	73.2	44	50.0	2	4	248	0.00	29.824 
15:25	74.0	74.0	74.0	37	46.1	3	7	270	0.00	29.824 
15:30	73.5	73.5	73.5	39	47.0	2	5	248	0.00	29.817 
15:35	74.0	74.0	74.0	46	51.9	1	3	248	0.00	29.817 
15:40	74.4	74.4	74.4	38	47.1	3	6	270	0.00	29.817 
15:45	74.0	74.0	74.0	35	44.6	3	7	270	0.00	29.807 
15:50	73.7	73.7	73.7	37	45.8	3	6	248	0.00	29.807 
15:55	72.7	72.7	72.7	40	47.0	2	4	270	0.00	29.807 
16:00	72.1	72.1	72.1	39	45.8	2	9	248	0.00	29.807 
16:05	71.8	71.8	71.8	39	45.5	3	7	270	0.00	29.807 
16:10	72.1	72.1	72.1	40	46.4	2	8	270	0.00	29.807 
16:15	72.8	72.8	72.8	38	45.7	2	5	270	0.00	29.793 
16:20	73.0	73.0	73.0	39	46.6	2	4	270	0.00	29.793 
16:25	73.0	73.0	73.0	43	49.2	1	4	248	0.00	29.793 
16:30	73.0	73.0	73.0	39	46.6	2	5	248	0.00	29.792 
16:35	73.3	73.3	73.3	42	48.8	1	5	248	0.00	29.792 
16:40	74.2	74.2	74.2	40	48.3	1	6	292	0.00	29.792 
16:45	74.2	74.2	74.2	40	48.3	2	5	270	0.00	29.780 
16:50	73.9	73.9	73.9	41	48.7	2	6	248	0.00	29.780 
16:55	73.5	73.5	73.5	40	47.7	2	6	270	0.00	29.780 
17:00	73.0	73.0	73.0	41	47.9	2	10	270	0.00	29.776 
17:05	72.7	72.7	72.7	41	47.6	2	6	270	0.00	29.776 
17:10	72.3	72.3	72.3	43	48.5	1	6	248	0.00	29.776 
17:15	72.1	72.1	72.1	40	46.4	3	7	248	0.00	29.777 
17:20	72.1	72.1	72.1	40	46.4	2	6	270	0.00	29.777 
17:25	72.0	72.0	72.0	43	48.3	1	4	270	0.00	29.777 
17:30	71.6	71.6	71.6	43	47.9	1	6	68	0.00	29.780 
17:35	70.6	70.6	70.6	43	47.0	3	7	292	0.00	29.780 
17:40	67.3	67.3	67.3	50	48.0	3	10	315	0.00	29.780 
17:45	64.0	64.0	64.0	64	51.6	2	6	292	0.01	29.804 
17:50	61.2	61.2	61.2	73	52.5	1	5	315	0.01	29.804 
17:55	59.8	59.8	59.8	77	52.6	1	3	270	0.01	29.804 
18:00	59.2	59.2	59.2	77	52.0	1	3	270	0.00	29.816 
18:05	59.2	59.2	59.2	79	52.7	2	5	248	0.01	29.816 
18:10	58.3	58.3	58.3	80	52.2	3	9	270	0.04	29.816 
18:15	57.3	57.3	57.3	81	51.5	3	9	270	0.01	29.837 
18:20	56.7	56.7	56.7	83	51.6	2	5	270	0.01	29.837 
18:25	56.6	56.6	56.6	84	51.8	0	2	270	0.02	29.837 
18:30	56.6	56.6	56.6	85	52.1	0	1	270	0.00	29.828 
18:35	56.5	56.5	56.5	86	52.4	0	1	270	0.01	29.828 
18:40	56.5	56.5	56.5	88	53.0	0	1	270	0.01	29.828 
18:45	56.5	56.5	56.5	88	53.0	1	4	270	0.00	29.830 
18:50	56.7	56.7	56.7	88	53.2	2	6	292	0.02	29.830 
18:55	57.0	57.0	57.0	88	53.5	3	7	270	0.01	29.830 
19:00	57.2	57.2	57.2	88	53.7	2	5	270	0.01	29.854 
19:05	57.2	57.2	57.2	89	54.0	3	6	248	0.01	29.854 
19:10	57.3	57.3	57.3	90	54.4	4	9	248	0.02	29.854 
19:15	57.0	57.0	57.0	90	54.1	4	10	270	0.02	29.878 
19:20	56.6	56.6	56.6	90	53.7	4	12	270	0.02	29.878 
19:25	56.2	56.2	56.2	90	53.3	3	6	248	0.03	29.878 
19:30	55.7	55.7	55.7	91	53.1	2	7	248	0.02	29.883 
19:35	55.4	55.4	55.4	91	52.8	0	3	270	0.02	29.883 
19:40	55.3	55.3	55.3	91	52.7	0	1	270	0.01	29.883 
19:45	55.3	55.3	55.3	92	53.0	0	0	---	0.00	29.840 
19:50	55.3	55.3	55.3	92	53.0	0	1	270	0.00	29.840 
19:55	55.3	55.3	55.3	92	53.0	0	1	270	0.00	29.840 
20:00	55.1	55.1	55.1	92	52.8	0	0	---	0.00	29.835 
20:05	55.1	55.1	55.1	92	52.8	0	1	270	0.00	29.835 
20:10	55.1	55.1	55.1	92	52.8	0	1	270	0.00	29.835 
20:15	55.1	55.1	55.1	93	53.1	0	0	---	0.00	29.835 
20:20	55.1	55.1	55.1	93	53.1	0	0	---	0.00	29.835 
20:25	55.3	55.3	55.3	93	53.3	0	1	270	0.00	29.835 
20:30	55.3	55.3	55.3	93	53.3	0	1	270	0.00	29.833 
20:35	55.3	55.3	55.3	93	53.3	0	1	270	0.00	29.833 
20:40	55.3	55.3	55.3	93	53.3	0	1	270	0.00	29.833 
20:45	55.3	55.3	55.3	93	53.3	0	1	270	0.00	29.817 
20:50	55.1	55.1	55.1	93	53.1	0	0	---	0.00	29.817 
20:55	55.1	55.1	55.1	93	53.1	0	0	---	0.00	29.817 
21:00	55.1	55.1	55.1	93	53.1	0	0	---	0.00	29.818 
21:05	55.1	55.1	55.1	93	53.1	0	0	---	0.00	29.818 
21:10	55.0	55.0	55.0	93	53.0	0	0	---	0.00	29.818 
21:15	54.8	54.8	54.8	94	53.1	0	0	---	0.00	29.826 
21:20	54.8	54.8	54.8	94	53.1	0	0	---	0.00	29.826 
21:25	54.7	54.7	54.7	94	53.0	0	0	---	0.00	29.826 
21:30	54.7	54.7	54.7	94	53.0	0	1	270	0.00	29.832 
21:35	54.5	54.5	54.5	94	52.8	0	0	---	0.00	29.832 
21:40	54.5	54.5	54.5	94	52.8	0	1	270	0.00	29.832 
21:45	54.4	54.4	54.4	94	52.7	0	0	---	0.00	29.839 
21:50	54.4	54.4	54.4	94	52.7	0	0	---	0.00	29.839 
21:55	54.4	54.4	54.4	94	52.7	0	0	---	0.00	29.839 
22:00	54.2	54.2	54.2	94	52.5	0	0	---	0.00	29.846 
22:05	54.2	54.2	54.2	94	52.5	0	0	---	0.00	29.846 
22:10	54.1	54.1	54.1	94	52.4	0	0	---	0.00	29.846 
22:15	54.1	54.1	54.1	94	52.4	0	0	---	0.00	29.845 
22:20	54.1	54.1	54.1	94	52.4	0	0	---	0.00	29.845 
22:25	53.9	53.9	53.9	94	52.2	0	0	---	0.00	29.845 
22:30	53.9	53.9	53.9	94	52.2	0	0	---	0.00	29.846 
22:35	53.9	53.9	53.9	94	52.2	0	0	---	0.00	29.846 
22:40	53.9	53.9	53.9	95	52.5	0	0	---	0.00	29.846 
22:45	53.8	53.8	53.8	95	52.4	0	0	---	0.00	29.847 
22:50	53.8	53.8	53.8	95	52.4	0	0	---	0.00	29.847 
22:55	53.6	53.6	53.6	95	52.2	0	0	---	0.00	29.847 
23:00	53.6	53.6	53.6	95	52.2	0	0	---	0.00	29.849 
23:05	53.6	53.6	53.6	95	52.2	0	0	---	0.00	29.849 
23:10	53.6	53.6	53.6	95	52.2	0	0	---	0.00	29.849 
23:15	53.6	53.6	53.6	95	52.2	0	0	---	0.00	29.848 
23:20	53.6	53.6	53.6	95	52.2	0	0	---	0.00	29.848 
23:25	53.8	53.8	53.8	95	52.4	0	1	270	0.00	29.848 
23:30	53.9	53.9	53.9	95	52.5	0	1	270	0.00	29.844 
23:35	53.9	53.9	53.9	95	52.5	0	1	270	0.00	29.844 
23:40	54.1	54.1	54.1	95	52.7	0	1	270	0.00	29.844 
23:45	54.1	54.1	54.1	95	52.7	0	1	270	0.00	29.843 
23:50	54.1	54.1	54.1	95	52.7	0	1	270	0.00	29.843 
23:55	54.2	54.2	54.2	95	52.8	0	1	270	0.00	29.843 

CoCoRaHS
IN-AL-39
A2 Web Hosting
Creative Commons License
GoDaddy
search engine by freefind advanced

loaded 2018-11-13 17:12:21 • last modified 2010-11-18 10:43:29
Privacy PolicyDisclaimer
• wx.awcolley.com is powered by PmWiki v.2002016 •
• all content (unless otherwise noted) © 2018 A W Colley